createdAt,value
2023-03-23T15:59:44.034Z,29.00
2023-03-23T16:02:22.891Z,26.95
2023-03-23T16:04:51.608Z,24.95
2023-03-23T16:07:23.291Z,24.05
2023-03-23T16:09:51.671Z,29.83
2023-03-23T16:12:19.125Z,24.35
2023-03-23T16:14:46.630Z,22.70
2023-03-23T16:17:17.725Z,29.55
2023-03-23T16:19:45.350Z,23.05
2023-03-23T16:22:12.860Z,25.23
2023-03-23T16:24:40.569Z,20.77
2023-03-23T16:27:10.491Z,26.05
2023-03-23T16:29:59.941Z,22.60
2023-03-23T16:32:25.461Z,23.88
2023-03-23T16:34:52.868Z,18.45
2023-03-23T16:37:20.664Z,38.72
2023-03-23T16:39:50.562Z,27.10
2023-03-23T16:42:19.587Z,21.42
2023-03-23T16:44:52.005Z,21.88
2023-03-23T16:47:23.709Z,22.13
2023-03-23T16:52:22.028Z,21.02
2023-03-23T16:54:49.425Z,22.80
2023-03-23T16:57:16.813Z,23.27
2023-03-23T16:59:44.606Z,23.45
2023-03-23T17:02:12.912Z,22.10
2023-03-23T17:04:44.072Z,25.45
2023-03-23T17:07:13.065Z,22.70
2023-03-23T17:09:41.728Z,23.45
2023-03-23T17:12:10.258Z,26.17
2023-03-23T17:14:37.742Z,20.80
2023-03-23T17:17:05.164Z,29.48
2023-03-23T17:19:32.602Z,25.75
2023-03-23T17:22:00.207Z,21.65
2023-03-23T17:24:27.705Z,18.80
2023-03-23T17:26:55.539Z,21.98
2023-03-23T17:29:23.553Z,19.95
2023-03-23T17:31:51.844Z,21.65
2023-03-23T17:34:19.871Z,21.98
2023-03-23T17:36:47.333Z,23.52
2023-03-23T17:39:14.798Z,23.42
2023-03-23T17:41:42.383Z,27.58
2023-03-23T17:44:09.831Z,22.20
2023-03-23T17:46:37.253Z,18.05
2023-03-23T17:49:04.791Z,19.50
2023-03-23T17:51:32.211Z,21.35
2023-03-23T17:53:59.571Z,22.80
2023-03-23T17:56:26.996Z,23.45
2023-03-23T17:58:54.865Z,23.20
2023-03-23T18:01:22.387Z,24.38
2023-03-23T18:03:49.846Z,27.73
2023-03-23T18:06:17.442Z,23.92
2023-03-23T18:08:45.007Z,24.13
2023-03-23T18:11:12.666Z,31.60
2023-03-23T18:13:40.318Z,21.55
2023-03-23T18:16:08.679Z,38.90
2023-03-23T18:18:36.446Z,30.90
2023-03-23T18:21:08.192Z,37.22
2023-03-23T18:23:46.101Z,30.25
2023-03-23T18:26:21.905Z,31.27
2023-03-23T18:28:51.947Z,27.77
2023-03-23T18:31:20.393Z,73.18
2023-03-23T18:33:49.806Z,32.10
2023-03-23T18:36:20.598Z,37.85
2023-03-23T18:38:49.249Z,36.28
2023-03-23T18:41:17.693Z,33.35
2023-03-23T18:43:46.099Z,34.25
2023-03-23T18:46:13.818Z,40.35
2023-03-23T18:48:41.418Z,37.30
2023-03-23T18:51:09.461Z,35.50
2023-03-23T18:53:36.933Z,32.15
2023-03-23T18:56:12.820Z,32.30
2023-03-23T18:58:40.430Z,33.30
2023-03-23T19:01:11.125Z,37.13
2023-03-23T19:03:40.382Z,30.45
2023-03-23T19:06:17.539Z,34.55
2023-03-23T19:08:45.878Z,46.20
2023-03-23T19:11:14.282Z,40.35
2023-03-23T19:13:50.751Z,34.50
2023-03-23T19:16:26.114Z,33.28
2023-03-23T19:18:53.459Z,34.70
2023-03-23T19:21:25.266Z,35.22
2023-03-23T19:23:55.500Z,41.20
2023-03-23T19:26:27.386Z,41.63
2023-03-23T19:29:24.407Z,32.20
2023-03-23T19:31:44.704Z,35.92
2023-03-23T19:34:14.160Z,39.20
2023-03-23T19:36:48.162Z,31.48
2023-03-23T19:39:22.186Z,36.70
2023-03-23T19:41:51.005Z,33.40
2023-03-23T19:44:18.611Z,36.10
2023-03-23T19:46:47.987Z,31.40
2023-03-23T19:49:15.676Z,25.40
2023-03-23T19:51:43.120Z,31.95
2023-03-23T19:54:10.858Z,35.95
2023-03-23T19:56:38.508Z,28.70
2023-03-23T19:59:07.944Z,28.77
2023-03-23T20:01:35.516Z,30.67
2023-03-23T20:04:05.340Z,33.05
2023-03-23T20:06:33.878Z,26.75
2023-03-23T20:09:05.174Z,28.83
2023-03-23T20:11:33.994Z,30.50
2023-03-23T20:14:02.367Z,32.40
2023-03-23T20:16:29.820Z,29.67
2023-03-23T20:19:00.056Z,23.20
2023-03-23T20:21:28.718Z,26.10
2023-03-23T20:23:58.631Z,36.97
2023-03-23T20:26:29.612Z,31.00
2023-03-23T20:28:57.178Z,27.02
2023-03-23T20:31:27.311Z,28.80
2023-03-23T20:34:02.154Z,38.25
2023-03-23T20:36:35.157Z,30.98
2023-03-23T20:39:14.392Z,28.52
2023-03-23T20:41:43.623Z,34.95
2023-03-23T20:44:16.147Z,34.72
2023-03-23T20:46:45.407Z,35.92
2023-03-23T20:49:13.958Z,31.27
2023-03-23T20:51:41.776Z,26.52
2023-03-23T20:54:10.107Z,34.38
2023-03-23T20:56:40.459Z,27.38
2023-03-23T20:59:08.217Z,33.40
2023-03-23T21:01:37.092Z,25.90
2023-03-23T21:04:05.333Z,23.55
2023-03-23T21:06:34.003Z,26.52
2023-03-23T21:09:01.446Z,24.08
2023-03-23T21:11:30.115Z,29.23
2023-03-23T21:13:57.570Z,35.15
2023-03-23T21:16:25.230Z,36.75
2023-03-23T21:18:52.960Z,45.13
2023-03-23T21:21:20.782Z,45.92
2023-03-23T21:23:52.353Z,37.78
2023-03-23T21:26:22.634Z,32.85
2023-03-23T21:28:50.929Z,31.92
2023-03-23T21:31:18.758Z,42.08
2023-03-23T21:33:46.525Z,32.25
2023-03-23T21:36:13.984Z,43.35
2023-03-23T21:38:41.463Z,35.33
2023-03-23T21:41:11.700Z,35.50
2023-03-23T21:43:40.743Z,37.45
2023-03-23T21:46:09.636Z,34.15
2023-03-23T21:48:41.553Z,39.35
2023-03-23T21:51:15.485Z,44.63
2023-03-23T21:53:43.674Z,48.58
2023-03-23T21:56:11.829Z,37.90
2023-03-23T21:58:39.260Z,41.55
2023-03-23T22:01:08.245Z,38.95
2023-03-23T22:03:36.271Z,45.17
2023-03-23T22:06:10.740Z,43.45
2023-03-23T22:08:40.140Z,47.28
2023-03-23T22:11:13.822Z,47.55
2023-03-23T22:13:42.186Z,43.15
2023-03-23T22:16:13.426Z,57.00
2023-03-23T22:18:45.284Z,51.45
2023-03-23T22:21:14.571Z,50.15
2023-03-23T22:23:42.666Z,46.67
2023-03-23T22:26:12.175Z,46.85
2023-03-23T22:28:40.419Z,47.45
2023-03-23T22:31:14.155Z,38.90
2023-03-23T22:33:41.672Z,34.42
2023-03-23T22:36:09.747Z,42.25
2023-03-23T22:38:39.381Z,42.53
2023-03-23T22:41:08.518Z,44.42
2023-03-23T22:43:36.984Z,42.67
2023-03-23T22:46:05.170Z,49.45
2023-03-23T22:48:33.340Z,41.10
2023-03-23T22:51:01.460Z,53.03
2023-03-23T22:53:29.248Z,57.35
2023-03-23T22:55:57.820Z,54.05
2023-03-23T22:58:26.846Z,52.95
2023-03-23T23:01:00.807Z,53.15
2023-03-23T23:03:30.379Z,57.60
2023-03-23T23:05:59.281Z,50.00
2023-03-23T23:08:28.578Z,55.10
2023-03-23T23:10:58.635Z,55.45
2023-03-23T23:13:26.832Z,95.93
2023-03-23T23:15:56.934Z,60.55
2023-03-23T23:18:26.203Z,66.57
2023-03-23T23:20:58.875Z,58.75
2023-03-23T23:23:28.083Z,53.92
2023-03-23T23:25:56.379Z,66.43
2023-03-23T23:28:26.660Z,66.00
2023-03-23T23:30:54.668Z,64.43
2023-03-23T23:33:22.626Z,60.95
2023-03-23T23:35:50.297Z,61.47
2023-03-23T23:38:18.249Z,67.88
2023-03-23T23:40:47.271Z,68.45
2023-03-23T23:43:16.319Z,71.40
2023-03-23T23:45:44.362Z,64.53
2023-03-23T23:48:12.678Z,65.95
2023-03-23T23:50:40.224Z,62.20
2023-03-23T23:53:09.933Z,57.38
2023-03-23T23:55:39.420Z,71.90
2023-03-23T23:58:06.927Z,71.38
